createdAt,value
2019-03-03T00:00:04.587Z,7.40
2019-03-03T00:01:04.612Z,7.40
2019-03-03T00:02:04.821Z,7.40
2019-03-03T00:03:04.999Z,7.40
2019-03-03T00:04:04.648Z,7.40
2019-03-03T00:05:04.855Z,7.40
2019-03-03T00:06:04.854Z,7.40
2019-03-03T00:07:04.546Z,7.40
2019-03-03T00:08:04.916Z,7.40
2019-03-03T00:09:04.787Z,7.40
2019-03-03T00:10:04.301Z,7.40
2019-03-03T00:11:04.912Z,7.40
2019-03-03T00:12:04.781Z,7.40
2019-03-03T00:13:04.817Z,7.40
2019-03-03T00:14:05.010Z,7.40
2019-03-03T00:15:05.054Z,7.40
2019-03-03T00:16:04.171Z,7.40
2019-03-03T00:17:04.344Z,7.50
2019-03-03T00:18:04.842Z,7.50
2019-03-03T00:19:04.528Z,7.50
2019-03-03T00:20:04.716Z,7.50
2019-03-03T00:21:04.250Z,7.50
2019-03-03T00:22:04.479Z,7.50
2019-03-03T00:23:04.276Z,7.50
2019-03-03T00:24:04.432Z,7.50
2019-03-03T00:25:04.464Z,7.50
2019-03-03T00:26:04.888Z,7.50
2019-03-03T00:27:04.975Z,7.50
2019-03-03T00:28:05.109Z,7.50
2019-03-03T00:29:09.780Z,7.60
2019-03-03T00:30:05.186Z,7.50
2019-03-03T00:31:04.307Z,7.60
2019-03-03T00:32:04.494Z,7.60
2019-03-03T00:33:05.199Z,7.60
2019-03-03T00:34:04.827Z,7.60
2019-03-03T00:35:04.537Z,7.60
2019-03-03T00:36:05.010Z,7.60
2019-03-03T00:37:04.438Z,7.60
2019-03-03T00:38:04.521Z,7.60
2019-03-03T00:39:04.841Z,7.60
2019-03-03T00:40:04.815Z,7.60
2019-03-03T00:41:05.241Z,7.60
2019-03-03T00:42:04.374Z,7.60
2019-03-03T00:43:04.463Z,7.60
2019-03-03T00:44:04.638Z,7.70
2019-03-03T00:45:05.063Z,7.60
2019-03-03T00:46:04.263Z,7.60
2019-03-03T00:47:04.485Z,7.70
2019-03-03T00:48:04.559Z,7.60
2019-03-03T00:49:04.894Z,7.60
2019-03-03T00:50:04.895Z,7.70
2019-03-03T00:51:04.804Z,7.60
2019-03-03T00:52:04.236Z,7.70
2019-03-03T00:53:05.013Z,7.60
2019-03-03T00:54:05.152Z,7.70
2019-03-03T00:55:04.598Z,7.70
2019-03-03T00:56:04.611Z,7.70
2019-03-03T00:57:05.080Z,7.70
2019-03-03T00:58:05.059Z,7.70
2019-03-03T00:59:04.402Z,7.70
2019-03-03T01:00:04.594Z,7.70
2019-03-03T01:01:05.210Z,7.70
2019-03-03T01:02:06.018Z,7.70
2019-03-03T01:03:05.266Z,7.70
2019-03-03T01:04:04.706Z,7.70
2019-03-03T01:05:04.998Z,7.70
2019-03-03T01:06:04.892Z,7.70
2019-03-03T01:07:04.653Z,7.70
2019-03-03T01:08:05.267Z,7.70
2019-03-03T01:09:04.834Z,7.70
2019-03-03T01:10:05.489Z,7.70
2019-03-03T01:11:04.799Z,7.70
2019-03-03T01:12:04.828Z,7.70
2019-03-03T01:13:05.096Z,7.80
2019-03-03T01:14:04.778Z,7.70
2019-03-03T01:15:05.110Z,7.70
2019-03-03T01:16:04.632Z,7.70
2019-03-03T01:17:04.971Z,7.80
2019-03-03T01:18:05.184Z,7.70
2019-03-03T01:19:05.056Z,7.70
2019-03-03T01:20:04.680Z,7.70
2019-03-03T01:21:04.857Z,7.80
2019-03-03T01:22:04.597Z,7.80
2019-03-03T01:23:04.757Z,7.80
2019-03-03T01:24:04.881Z,7.80
2019-03-03T01:25:04.483Z,7.80
2019-03-03T01:26:06.264Z,7.80
2019-03-03T01:27:04.280Z,7.80
2019-03-03T01:28:04.445Z,7.80
2019-03-03T01:29:09.489Z,7.80
2019-03-03T01:30:04.864Z,7.80
2019-03-03T01:31:04.997Z,7.80
2019-03-03T01:32:04.800Z,7.80
2019-03-03T01:33:04.978Z,7.80
2019-03-03T01:34:05.072Z,7.80
2019-03-03T01:35:04.333Z,7.80
2019-03-03T01:36:04.423Z,7.80
2019-03-03T01:37:04.468Z,7.80
2019-03-03T01:38:05.131Z,7.80
2019-03-03T01:39:04.570Z,7.80
2019-03-03T01:40:04.718Z,7.80
2019-03-03T01:41:06.328Z,7.80
2019-03-03T01:42:05.053Z,7.80
2019-03-03T01:43:04.257Z,7.80
2019-03-03T01:44:04.337Z,7.80
2019-03-03T01:45:05.032Z,7.80
2019-03-03T01:46:04.467Z,7.80
2019-03-03T01:47:04.860Z,7.80
2019-03-03T01:48:04.179Z,7.70
2019-03-03T01:49:04.339Z,7.80
2019-03-03T01:50:04.467Z,7.70
2019-03-03T01:51:05.103Z,7.70
2019-03-03T01:52:04.448Z,7.70
2019-03-03T01:53:05.138Z,7.70
2019-03-03T01:54:04.247Z,7.70
2019-03-03T01:55:04.417Z,7.70
2019-03-03T01:56:04.748Z,7.70
2019-03-03T01:57:04.935Z,7.70
2019-03-03T01:58:04.939Z,7.70
2019-03-03T01:59:04.581Z,7.70
2019-03-03T02:00:04.987Z,7.70
2019-03-03T02:01:04.238Z,7.70
2019-03-03T02:02:04.273Z,7.70
2019-03-03T02:03:04.454Z,7.70
2019-03-03T02:04:05.071Z,7.70
2019-03-03T02:05:04.466Z,7.70
2019-03-03T02:06:04.640Z,7.70
2019-03-03T02:07:04.650Z,7.70
2019-03-03T02:08:05.120Z,7.70
2019-03-03T02:09:04.671Z,7.70
2019-03-03T02:10:04.990Z,7.70
2019-03-03T02:11:04.653Z,7.70
2019-03-03T02:12:04.296Z,7.70
2019-03-03T02:13:05.010Z,7.70
2019-03-03T02:14:05.208Z,7.70
2019-03-03T02:15:04.580Z,7.70
2019-03-03T02:16:04.625Z,7.70
2019-03-03T02:17:04.453Z,7.70
2019-03-03T02:18:04.633Z,7.70
2019-03-03T02:19:04.635Z,7.70
2019-03-03T02:20:04.879Z,7.70
2019-03-03T02:21:05.037Z,7.70
2019-03-03T02:22:04.699Z,7.70
2019-03-03T02:23:05.104Z,7.70
2019-03-03T02:24:04.381Z,7.80
2019-03-03T02:25:04.872Z,7.80
2019-03-03T02:26:05.118Z,7.80
2019-03-03T02:27:04.767Z,7.80
2019-03-03T02:28:04.928Z,7.80
2019-03-03T02:29:05.120Z,7.80
2019-03-03T02:30:05.253Z,7.80
2019-03-03T02:31:04.432Z,7.80
2019-03-03T02:32:04.924Z,7.80
2019-03-03T02:33:05.191Z,7.80
2019-03-03T02:34:04.960Z,7.80
2019-03-03T02:35:04.891Z,7.80
2019-03-03T02:36:04.455Z,7.80
2019-03-03T02:37:04.900Z,7.80
2019-03-03T02:38:09.894Z,7.80
2019-03-03T02:39:04.314Z,7.80
2019-03-03T02:40:04.409Z,7.80
2019-03-03T02:41:04.938Z,7.80
2019-03-03T02:42:04.191Z,7.80
2019-03-03T02:43:04.881Z,7.80
2019-03-03T02:44:05.098Z,7.80
2019-03-03T02:45:05.182Z,7.80
2019-03-03T02:46:04.895Z,7.80
2019-03-03T02:47:04.649Z,7.80
2019-03-03T02:48:05.159Z,7.80
2019-03-03T02:49:04.755Z,7.80
2019-03-03T02:50:04.283Z,7.80
2019-03-03T02:51:04.766Z,7.80
2019-03-03T02:52:04.866Z,7.80
2019-03-03T02:53:04.306Z,7.80
2019-03-03T02:54:04.403Z,7.80
2019-03-03T02:55:05.042Z,7.80
2019-03-03T02:56:05.162Z,7.80
2019-03-03T02:57:04.322Z,7.80
2019-03-03T02:58:04.442Z,7.80
2019-03-03T02:59:04.959Z,7.80
2019-03-03T03:00:04.531Z,7.80
2019-03-03T03:01:04.935Z,7.80
2019-03-03T03:02:04.298Z,7.80
2019-03-03T03:03:04.571Z,7.80
2019-03-03T03:04:04.756Z,7.80
2019-03-03T03:05:04.849Z,7.80
2019-03-03T03:06:05.050Z,7.80
2019-03-03T03:07:04.285Z,7.80
2019-03-03T03:08:04.550Z,7.80
2019-03-03T03:09:04.789Z,7.80
2019-03-03T03:10:04.805Z,7.80
2019-03-03T03:11:04.357Z,7.80
2019-03-03T03:12:04.580Z,7.80
2019-03-03T03:13:05.168Z,7.80
2019-03-03T03:14:05.192Z,7.80
2019-03-03T03:15:04.381Z,7.80
2019-03-03T03:16:04.538Z,7.80
2019-03-03T03:17:04.830Z,7.80
2019-03-03T03:18:04.521Z,7.80
2019-03-03T03:19:04.849Z,7.80
2019-03-03T03:20:04.198Z,7.80
2019-03-03T03:21:04.336Z,7.80
2019-03-03T03:22:05.054Z,7.80
2019-03-03T03:23:05.343Z,7.80
2019-03-03T03:24:04.653Z,7.80
2019-03-03T03:25:04.988Z,7.80
2019-03-03T03:26:04.553Z,7.80
2019-03-03T03:27:07.169Z,7.80
2019-03-03T03:28:05.085Z,7.80
2019-03-03T03:29:04.747Z,7.80
2019-03-03T03:30:04.816Z,7.80
2019-03-03T03:31:04.583Z,7.80
2019-03-03T03:32:04.891Z,7.80
2019-03-03T03:33:05.048Z,7.80
2019-03-03T03:34:04.709Z,7.80
2019-03-03T03:35:04.941Z,7.80
2019-03-03T03:36:05.232Z,7.80
2019-03-03T03:37:04.637Z,7.90
2019-03-03T03:38:04.777Z,7.80
2019-03-03T03:39:04.650Z,7.80
2019-03-03T03:40:04.728Z,7.90
2019-03-03T03:41:04.854Z,7.90
2019-03-03T03:42:04.518Z,7.90
2019-03-03T03:43:04.556Z,7.90
2019-03-03T03:44:04.859Z,7.90
2019-03-03T03:45:04.894Z,7.90
2019-03-03T03:46:10.135Z,7.90
2019-03-03T03:47:04.625Z,7.90
2019-03-03T03:48:04.882Z,7.90
2019-03-03T03:49:05.076Z,7.90
2019-03-03T03:50:04.484Z,7.90
2019-03-03T03:51:05.300Z,7.90
2019-03-03T03:52:04.384Z,7.90
2019-03-03T03:53:04.853Z,7.90
2019-03-03T03:54:04.441Z,7.90
2019-03-03T03:55:04.621Z,7.90
2019-03-03T03:56:04.698Z,7.90
2019-03-03T03:57:04.971Z,7.90
2019-03-03T03:58:04.543Z,7.90
2019-03-03T03:59:04.762Z,7.90
2019-03-03T04:00:04.428Z,7.90
2019-03-03T04:01:04.759Z,7.90
2019-03-03T04:02:05.265Z,7.90
2019-03-03T04:03:04.839Z,7.90
2019-03-03T04:04:04.474Z,7.90
2019-03-03T04:05:04.510Z,7.90
2019-03-03T04:06:10.026Z,7.90
2019-03-03T04:07:04.397Z,7.90
2019-03-03T04:08:04.715Z,7.90
2019-03-03T04:09:05.305Z,7.90
2019-03-03T04:10:04.519Z,7.90
2019-03-03T04:11:04.749Z,7.90
2019-03-03T04:12:04.848Z,7.90
2019-03-03T04:13:04.392Z,7.90
2019-03-03T04:14:04.742Z,7.90
2019-03-03T04:15:05.074Z,7.90
2019-03-03T04:16:05.012Z,7.90
2019-03-03T04:17:04.446Z,7.90
2019-03-03T04:18:04.517Z,7.90
2019-03-03T04:19:04.705Z,7.90
2019-03-03T04:20:04.766Z,7.90
2019-03-03T04:21:04.871Z,7.90
2019-03-03T04:22:04.613Z,7.90
2019-03-03T04:23:04.600Z,7.90
2019-03-03T04:24:04.892Z,7.90
2019-03-03T04:25:05.032Z,7.90
2019-03-03T04:26:04.406Z,7.90
2019-03-03T04:27:04.441Z,7.90
2019-03-03T04:28:04.555Z,7.90
2019-03-03T04:29:09.458Z,7.90
2019-03-03T04:30:04.947Z,7.90
2019-03-03T04:31:05.016Z,7.90
2019-03-03T04:32:04.209Z,7.90
2019-03-03T04:33:04.637Z,7.90
2019-03-03T04:34:04.584Z,7.90
2019-03-03T04:35:05.047Z,7.90
2019-03-03T04:36:05.098Z,7.90
2019-03-03T04:37:04.625Z,7.90
2019-03-03T04:38:05.147Z,7.90
2019-03-03T04:39:04.201Z,7.90
2019-03-03T04:40:04.849Z,7.90
2019-03-03T04:41:04.354Z,7.90
2019-03-03T04:42:04.468Z,7.90
2019-03-03T04:43:04.541Z,7.90
2019-03-03T04:44:04.698Z,7.90
2019-03-03T04:45:04.294Z,7.90
2019-03-03T04:46:04.516Z,7.90
2019-03-03T04:47:04.570Z,7.90
2019-03-03T04:48:04.772Z,7.90
2019-03-03T04:49:10.078Z,7.90
2019-03-03T04:50:04.460Z,7.90
2019-03-03T04:51:04.954Z,7.90
2019-03-03T04:52:04.421Z,7.90
2019-03-03T04:53:04.552Z,7.90
2019-03-03T04:54:05.084Z,7.80
2019-03-03T04:55:04.152Z,7.80
2019-03-03T04:56:04.636Z,7.80
2019-03-03T04:57:04.967Z,7.80
2019-03-03T04:58:04.239Z,7.80
2019-03-03T04:59:04.301Z,7.80
2019-03-03T05:00:04.843Z,7.80
2019-03-03T05:01:04.492Z,7.80
2019-03-03T05:02:05.181Z,7.80
2019-03-03T05:03:05.196Z,7.80
2019-03-03T05:04:04.401Z,7.80
2019-03-03T05:05:04.470Z,7.80
2019-03-03T05:06:04.977Z,7.80
2019-03-03T05:07:04.614Z,7.80
2019-03-03T05:08:04.907Z,7.80
2019-03-03T05:09:05.100Z,7.80
2019-03-03T05:10:04.482Z,7.80
2019-03-03T05:11:05.095Z,7.80
2019-03-03T05:12:04.638Z,7.80
2019-03-03T05:13:04.175Z,7.80
2019-03-03T05:14:04.278Z,7.80
2019-03-03T05:15:04.543Z,7.80
2019-03-03T05:16:04.484Z,7.80
2019-03-03T05:17:04.901Z,7.80
2019-03-03T05:18:04.453Z,7.80
2019-03-03T05:19:04.588Z,7.70
2019-03-03T05:20:04.566Z,7.70
2019-03-03T05:21:04.833Z,7.70
2019-03-03T05:22:04.938Z,7.70
2019-03-03T05:23:05.145Z,7.70
2019-03-03T05:24:04.203Z,7.70
2019-03-03T05:25:05.287Z,7.70
2019-03-03T05:26:04.596Z,7.70
2019-03-03T05:27:04.944Z,7.70
2019-03-03T05:28:04.291Z,7.70
2019-03-03T05:29:09.443Z,7.70
2019-03-03T05:30:04.814Z,7.70
2019-03-03T05:31:04.372Z,7.70
2019-03-03T05:32:04.898Z,7.60
2019-03-03T05:33:04.529Z,7.60
2019-03-03T05:34:04.793Z,7.60
2019-03-03T05:35:04.944Z,7.60
2019-03-03T05:36:05.099Z,7.60
2019-03-03T05:37:05.191Z,7.60
2019-03-03T05:38:04.746Z,7.60
2019-03-03T05:39:05.042Z,7.60
2019-03-03T05:40:05.124Z,7.60
2019-03-03T05:41:04.365Z,7.60
2019-03-03T05:42:04.383Z,7.60
2019-03-03T05:43:04.770Z,7.60
2019-03-03T05:44:04.329Z,7.60
2019-03-03T05:45:04.292Z,7.60
2019-03-03T05:46:04.622Z,7.60
2019-03-03T05:47:05.808Z,7.60
2019-03-03T05:48:04.921Z,7.60
2019-03-03T05:49:10.005Z,7.60
2019-03-03T05:50:04.442Z,7.60
2019-03-03T05:51:04.502Z,7.60
2019-03-03T05:52:04.676Z,7.60
2019-03-03T05:53:04.995Z,7.60
2019-03-03T05:54:04.397Z,7.60
2019-03-03T05:55:04.524Z,7.70
2019-03-03T05:56:04.748Z,7.70
2019-03-03T05:57:04.509Z,7.70
2019-03-03T05:58:05.143Z,7.70
2019-03-03T05:59:04.770Z,7.70
2019-03-03T06:00:04.908Z,7.70
2019-03-03T06:01:04.989Z,7.70
2019-03-03T06:02:04.349Z,7.70
2019-03-03T06:03:04.309Z,7.70
2019-03-03T06:04:04.504Z,7.70
2019-03-03T06:05:04.758Z,7.80
2019-03-03T06:06:04.723Z,7.70
2019-03-03T06:07:04.890Z,7.80
2019-03-03T06:08:04.944Z,7.80
2019-03-03T06:09:04.719Z,7.80
2019-03-03T06:10:05.159Z,7.80
2019-03-03T06:11:04.226Z,7.80
2019-03-03T06:12:04.385Z,7.80
2019-03-03T06:13:04.792Z,7.80
2019-03-03T06:14:04.832Z,7.80
2019-03-03T06:15:05.106Z,7.80
2019-03-03T06:16:04.816Z,7.80
2019-03-03T06:17:04.257Z,7.80
2019-03-03T06:18:04.785Z,7.80
2019-03-03T06:19:04.360Z,7.80
2019-03-03T06:20:04.551Z,7.80
2019-03-03T06:21:04.711Z,7.90
2019-03-03T06:22:04.262Z,7.90
2019-03-03T06:23:04.483Z,7.90
2019-03-03T06:24:04.929Z,7.90
2019-03-03T06:25:04.410Z,7.90
2019-03-03T06:26:04.636Z,7.90
2019-03-03T06:27:04.788Z,7.90
2019-03-03T06:28:04.238Z,7.90
2019-03-03T06:29:04.629Z,7.90
2019-03-03T06:30:05.480Z,7.90
2019-03-03T06:31:04.233Z,7.90
2019-03-03T06:32:04.527Z,7.90
2019-03-03T06:33:05.006Z,8.00
2019-03-03T06:34:05.153Z,8.00
2019-03-03T06:35:04.719Z,8.00
2019-03-03T06:36:05.133Z,8.00
2019-03-03T06:37:04.887Z,8.00
2019-03-03T06:38:04.980Z,8.00
2019-03-03T06:39:05.041Z,8.00
2019-03-03T06:40:04.741Z,8.00
2019-03-03T06:41:05.294Z,8.00
2019-03-03T06:42:04.817Z,8.00
2019-03-03T06:43:04.509Z,8.00
2019-03-03T06:44:04.626Z,8.00
2019-03-03T06:45:04.237Z,8.00
2019-03-03T06:46:04.531Z,8.10
2019-03-03T06:47:05.005Z,8.00
2019-03-03T06:48:04.641Z,8.10
2019-03-03T06:49:04.753Z,8.10
2019-03-03T06:50:04.884Z,8.00
2019-03-03T06:51:05.074Z,8.10
2019-03-03T06:52:05.122Z,8.00
2019-03-03T06:53:04.235Z,8.10
2019-03-03T06:54:04.511Z,8.10
2019-03-03T06:55:04.294Z,8.10
2019-03-03T06:56:04.348Z,8.10
2019-03-03T06:57:05.091Z,8.10
2019-03-03T06:58:05.023Z,8.10
2019-03-03T06:59:05.124Z,8.10
2019-03-03T07:00:05.169Z,8.10
2019-03-03T07:01:04.850Z,8.10
2019-03-03T07:02:05.103Z,8.10
2019-03-03T07:03:04.197Z,8.10
2019-03-03T07:04:04.656Z,8.10
2019-03-03T07:05:04.324Z,8.10
2019-03-03T07:06:05.024Z,8.10
2019-03-03T07:07:05.060Z,8.10
2019-03-03T07:08:04.489Z,8.10
2019-03-03T07:09:06.049Z,8.10
2019-03-03T07:10:05.233Z,8.10
2019-03-03T07:11:04.813Z,8.10
2019-03-03T07:12:05.243Z,8.10
2019-03-03T07:13:04.664Z,8.10
2019-03-03T07:14:05.082Z,8.10
2019-03-03T07:15:05.154Z,8.10
2019-03-03T07:16:04.977Z,8.10
2019-03-03T07:17:04.285Z,8.10
2019-03-03T07:18:04.699Z,8.20
2019-03-03T07:19:04.830Z,8.20
2019-03-03T07:20:04.509Z,8.20
2019-03-03T07:21:05.306Z,8.20
2019-03-03T07:22:06.029Z,8.20
2019-03-03T07:23:04.891Z,8.20
2019-03-03T07:24:04.749Z,8.20
2019-03-03T07:25:04.352Z,8.20
2019-03-03T07:26:04.541Z,8.30
2019-03-03T07:27:05.001Z,8.20
2019-03-03T07:28:05.209Z,8.20
2019-03-03T07:29:09.930Z,8.30
2019-03-03T07:30:04.249Z,8.30
2019-03-03T07:31:04.911Z,8.30
2019-03-03T07:32:04.906Z,8.30
2019-03-03T07:33:04.893Z,8.30
2019-03-03T07:34:04.300Z,8.30
2019-03-03T07:35:05.117Z,8.30
2019-03-03T07:36:04.376Z,8.30
2019-03-03T07:37:05.214Z,8.30
2019-03-03T07:38:04.820Z,8.30
2019-03-03T07:39:04.926Z,8.40
2019-03-03T07:40:04.561Z,8.30
2019-03-03T07:41:04.754Z,8.30
2019-03-03T07:42:05.107Z,8.40
2019-03-03T07:43:05.349Z,8.40
2019-03-03T07:44:04.913Z,8.40
2019-03-03T07:45:05.314Z,8.40
2019-03-03T07:46:04.502Z,8.40
2019-03-03T07:47:05.217Z,8.40
2019-03-03T07:48:04.386Z,8.40
2019-03-03T07:49:05.185Z,8.40
2019-03-03T07:50:04.190Z,8.40
2019-03-03T07:51:04.411Z,8.40
2019-03-03T07:52:04.529Z,8.40
2019-03-03T07:53:04.936Z,8.40
2019-03-03T07:54:05.197Z,8.40
2019-03-03T07:55:04.586Z,8.50
2019-03-03T07:56:04.563Z,8.50
2019-03-03T07:57:04.942Z,8.50
2019-03-03T07:58:05.011Z,8.50
2019-03-03T07:59:05.132Z,8.50
2019-03-03T08:00:04.795Z,8.50
2019-03-03T08:01:04.837Z,8.50
2019-03-03T08:02:09.491Z,8.50
2019-03-03T08:03:04.889Z,8.50
2019-03-03T08:04:04.346Z,8.50
2019-03-03T08:05:04.224Z,8.50
2019-03-03T08:06:04.617Z,8.50
2019-03-03T08:07:04.804Z,8.50
2019-03-03T08:08:05.096Z,8.50
2019-03-03T08:09:04.619Z,8.50
2019-03-03T08:10:04.573Z,8.50
2019-03-03T08:11:04.794Z,8.60
2019-03-03T08:12:04.364Z,8.60
2019-03-03T08:13:09.103Z,8.60
2019-03-03T08:14:04.314Z,8.60
2019-03-03T08:15:04.478Z,8.60
2019-03-03T08:16:04.452Z,8.60
2019-03-03T08:17:05.185Z,8.60
2019-03-03T08:18:04.327Z,8.60
2019-03-03T08:19:04.492Z,8.60
2019-03-03T08:20:05.303Z,8.60
2019-03-03T08:21:04.615Z,8.60
2019-03-03T08:22:04.861Z,8.60
2019-03-03T08:23:04.475Z,8.60
2019-03-03T08:24:04.258Z,8.60
2019-03-03T08:25:04.911Z,8.60
2019-03-03T08:26:06.718Z,8.60
2019-03-03T08:27:04.901Z,8.60
2019-03-03T08:28:04.363Z,8.60
2019-03-03T08:29:09.508Z,8.70
2019-03-03T08:30:04.966Z,8.70
2019-03-03T08:31:04.288Z,8.70
2019-03-03T08:32:05.080Z,8.70
2019-03-03T08:33:04.226Z,8.70
2019-03-03T08:34:04.509Z,8.70
2019-03-03T08:35:04.430Z,8.70
2019-03-03T08:36:05.180Z,8.70
2019-03-03T08:37:04.444Z,8.70
2019-03-03T08:38:04.717Z,8.70
2019-03-03T08:39:05.034Z,8.70
2019-03-03T08:40:04.415Z,8.70
2019-03-03T08:41:04.682Z,8.70
2019-03-03T08:42:04.915Z,8.70
2019-03-03T08:43:04.526Z,8.70
2019-03-03T08:44:05.007Z,8.70
2019-03-03T08:45:04.387Z,8.70
2019-03-03T08:46:04.645Z,8.80
2019-03-03T08:47:04.700Z,8.80
2019-03-03T08:48:04.772Z,8.80
2019-03-03T08:49:04.243Z,8.80
2019-03-03T08:50:05.078Z,8.80
2019-03-03T08:51:04.426Z,8.80
2019-03-03T08:52:04.602Z,8.80
2019-03-03T08:53:05.112Z,8.80
2019-03-03T08:54:05.215Z,8.80
2019-03-03T08:55:04.635Z,8.90
2019-03-03T08:56:04.414Z,8.90
2019-03-03T08:57:04.534Z,8.90
2019-03-03T08:58:04.668Z,8.90
2019-03-03T08:59:04.544Z,9.00
2019-03-03T09:00:05.247Z,9.00
2019-03-03T09:01:04.287Z,9.00
2019-03-03T09:02:04.452Z,9.00
2019-03-03T09:03:04.735Z,9.00
2019-03-03T09:04:04.766Z,9.10
2019-03-03T09:05:04.968Z,9.10
2019-03-03T09:06:05.084Z,9.10
2019-03-03T09:07:04.639Z,9.10
2019-03-03T09:08:04.435Z,9.10
2019-03-03T09:09:04.747Z,9.20
2019-03-03T09:10:04.810Z,9.20
2019-03-03T09:11:05.023Z,9.20
2019-03-03T09:12:04.184Z,9.20
2019-03-03T09:13:04.288Z,9.20
2019-03-03T09:14:04.861Z,9.20
2019-03-03T09:15:04.757Z,9.20
2019-03-03T09:16:04.794Z,9.20
2019-03-03T09:17:04.413Z,9.20
2019-03-03T09:18:04.745Z,9.20
2019-03-03T09:19:04.879Z,9.20
2019-03-03T09:20:04.547Z,9.20
2019-03-03T09:21:04.665Z,9.20
2019-03-03T09:22:04.860Z,9.20
2019-03-03T09:23:04.883Z,9.20
2019-03-03T09:24:04.477Z,9.20
2019-03-03T09:25:04.517Z,9.30
2019-03-03T09:26:04.939Z,9.30
2019-03-03T09:27:05.073Z,9.30
2019-03-03T09:28:04.208Z,9.30
2019-03-03T09:29:09.441Z,9.30
2019-03-03T09:30:04.904Z,9.30
2019-03-03T09:31:04.843Z,9.30
2019-03-03T09:32:05.035Z,9.30
2019-03-03T09:33:04.228Z,9.30
2019-03-03T09:34:04.636Z,9.30
2019-03-03T09:35:04.375Z,9.30
2019-03-03T09:36:04.382Z,9.30
2019-03-03T09:37:04.969Z,9.30
2019-03-03T09:38:04.921Z,9.30
2019-03-03T09:39:05.563Z,9.30
2019-03-03T09:40:09.198Z,9.30
2019-03-03T09:41:04.307Z,9.40
2019-03-03T09:42:04.769Z,9.40
2019-03-03T09:43:05.020Z,9.40
2019-03-03T09:44:05.048Z,9.40
2019-03-03T09:45:04.779Z,9.40
2019-03-03T09:46:04.100Z,9.40
2019-03-03T09:47:04.292Z,9.40
2019-03-03T09:48:04.295Z,9.40
2019-03-03T09:49:10.060Z,9.40
2019-03-03T09:50:04.271Z,9.40
2019-03-03T09:51:04.453Z,9.50
2019-03-03T09:52:04.475Z,9.50
2019-03-03T09:53:05.025Z,9.50
2019-03-03T09:54:05.067Z,9.50
2019-03-03T09:55:04.131Z,9.50
2019-03-03T09:56:04.317Z,9.50
2019-03-03T09:57:04.441Z,9.50
2019-03-03T09:58:05.008Z,9.50
2019-03-03T09:59:04.616Z,9.50
2019-03-03T10:00:04.726Z,9.50
2019-03-03T10:01:05.009Z,9.50
2019-03-03T10:02:04.552Z,9.60
2019-03-03T10:03:04.970Z,9.60
2019-03-03T10:04:05.121Z,9.60
2019-03-03T10:05:04.152Z,9.60
2019-03-03T10:06:04.282Z,9.60
2019-03-03T10:07:04.439Z,9.60
2019-03-03T10:08:04.125Z,9.60
2019-03-03T10:09:04.376Z,9.70
2019-03-03T10:10:04.828Z,9.70
2019-03-03T10:11:04.287Z,9.70
2019-03-03T10:12:04.301Z,9.70
2019-03-03T10:13:04.319Z,9.70
2019-03-03T10:14:04.783Z,9.80
2019-03-03T10:15:04.934Z,9.80
2019-03-03T10:16:05.013Z,9.80
2019-03-03T10:17:05.142Z,9.80
2019-03-03T10:18:04.895Z,9.80
2019-03-03T10:19:07.069Z,9.90
2019-03-03T10:20:04.942Z,9.90
2019-03-03T10:21:04.494Z,9.90
2019-03-03T10:22:04.658Z,9.90
2019-03-03T10:23:04.618Z,9.90
2019-03-03T10:24:04.688Z,9.90
2019-03-03T10:25:04.811Z,9.90
2019-03-03T10:26:05.104Z,9.90
2019-03-03T10:27:05.122Z,9.90
2019-03-03T10:28:04.629Z,9.90
2019-03-03T10:29:10.054Z,9.90
2019-03-03T10:30:04.301Z,9.90
2019-03-03T10:31:04.481Z,9.90
2019-03-03T10:32:04.843Z,9.90
2019-03-03T10:33:05.011Z,9.90
2019-03-03T10:34:05.051Z,9.90
2019-03-03T10:35:04.950Z,9.90
2019-03-03T10:36:04.224Z,9.90
2019-03-03T10:37:04.447Z,9.90
2019-03-03T10:38:04.758Z,9.90
2019-03-03T10:39:04.227Z,9.80
2019-03-03T10:40:04.182Z,9.80
2019-03-03T10:41:04.299Z,9.80
2019-03-03T10:42:04.232Z,9.80
2019-03-03T10:43:04.151Z,9.80
2019-03-03T10:44:04.176Z,9.80
2019-03-03T10:45:04.190Z,9.80
2019-03-03T10:46:04.123Z,9.80
2019-03-03T10:47:04.158Z,9.80
2019-03-03T10:48:04.290Z,9.80
2019-03-03T10:49:04.720Z,9.80
2019-03-03T10:50:04.688Z,9.80
2019-03-03T10:51:04.260Z,9.80
2019-03-03T10:52:04.231Z,9.80
2019-03-03T10:53:09.298Z,9.80
2019-03-03T10:54:04.638Z,9.90
2019-03-03T10:55:04.746Z,9.90
2019-03-03T10:56:04.627Z,9.90
2019-03-03T10:57:04.348Z,9.90
2019-03-03T10:58:04.753Z,9.90
2019-03-03T10:59:04.233Z,9.90
2019-03-03T11:00:04.434Z,9.90
2019-03-03T11:01:05.015Z,9.90
2019-03-03T11:02:04.198Z,9.90
2019-03-03T11:03:04.127Z,9.90
2019-03-03T11:04:04.316Z,9.90
2019-03-03T11:05:04.443Z,9.90
2019-03-03T11:06:04.683Z,9.90
2019-03-03T11:07:04.179Z,9.90
2019-03-03T11:08:04.175Z,9.90
2019-03-03T11:09:04.394Z,9.90
2019-03-03T11:10:04.367Z,9.90
2019-03-03T11:11:04.916Z,9.90
2019-03-03T11:12:04.873Z,9.90
2019-03-03T11:13:05.003Z,9.90
2019-03-03T11:14:05.039Z,9.90
2019-03-03T11:15:04.212Z,9.90
2019-03-03T11:16:04.811Z,10.00
2019-03-03T11:17:04.802Z,10.00
2019-03-03T11:18:04.383Z,10.00
2019-03-03T11:19:04.631Z,10.00
2019-03-03T11:20:04.155Z,10.00
2019-03-03T11:21:04.637Z,10.00
2019-03-03T11:22:05.163Z,10.00
2019-03-03T11:23:05.083Z,10.10
2019-03-03T11:24:04.583Z,10.10
2019-03-03T11:25:04.871Z,10.10
2019-03-03T11:26:04.987Z,10.10
2019-03-03T11:27:04.319Z,10.20
2019-03-03T11:28:04.517Z,10.20
2019-03-03T11:29:09.497Z,10.20
2019-03-03T11:30:04.794Z,10.30
2019-03-03T11:31:04.815Z,10.30
2019-03-03T11:32:06.025Z,10.30
2019-03-03T11:33:04.198Z,10.30
2019-03-03T11:34:05.052Z,10.40
2019-03-03T11:35:04.180Z,10.40
2019-03-03T11:36:04.677Z,10.40
2019-03-03T11:37:04.936Z,10.40
2019-03-03T11:38:05.051Z,10.40
2019-03-03T11:39:04.608Z,10.40
2019-03-03T11:40:04.649Z,10.50
2019-03-03T11:41:04.704Z,10.50
2019-03-03T11:42:04.171Z,10.50
2019-03-03T11:43:04.180Z,10.60
2019-03-03T11:44:04.307Z,10.60
2019-03-03T11:45:04.286Z,10.60
2019-03-03T11:46:04.453Z,10.60
2019-03-03T11:47:04.509Z,10.60
2019-03-03T11:48:04.691Z,10.60
2019-03-03T11:49:04.554Z,10.60
2019-03-03T11:50:04.718Z,10.60
2019-03-03T11:51:04.455Z,10.70
2019-03-03T11:52:04.988Z,10.70
2019-03-03T11:53:05.066Z,10.70
2019-03-03T11:54:05.108Z,10.70
2019-03-03T11:55:04.515Z,10.70
2019-03-03T11:56:05.003Z,10.70
2019-03-03T11:57:05.087Z,10.60
2019-03-03T11:58:04.528Z,10.60
2019-03-03T11:59:04.810Z,10.60
2019-03-03T12:00:04.772Z,10.60
2019-03-03T12:01:09.898Z,10.60
2019-03-03T12:02:04.266Z,10.60
2019-03-03T12:03:04.175Z,10.60
2019-03-03T12:04:04.348Z,10.60
2019-03-03T12:05:04.300Z,10.60
2019-03-03T12:06:04.381Z,10.60
2019-03-03T12:07:04.890Z,10.60
2019-03-03T12:08:04.994Z,10.60
2019-03-03T12:09:05.042Z,10.70
2019-03-03T12:10:05.004Z,10.70
2019-03-03T12:11:04.535Z,10.70
2019-03-03T12:12:04.929Z,10.70
2019-03-03T12:13:05.011Z,10.70
2019-03-03T12:14:04.563Z,10.70
2019-03-03T12:15:04.812Z,10.70
2019-03-03T12:16:04.996Z,10.70
2019-03-03T12:17:04.567Z,10.70
2019-03-03T12:18:04.703Z,10.80
2019-03-03T12:19:04.248Z,10.80
2019-03-03T12:20:04.261Z,10.80
2019-03-03T12:21:04.852Z,10.80
2019-03-03T12:22:04.953Z,10.80
2019-03-03T12:23:04.919Z,10.80
2019-03-03T12:24:05.107Z,10.80
2019-03-03T12:25:04.995Z,10.80
2019-03-03T12:26:04.767Z,10.80
2019-03-03T12:27:05.110Z,10.80
2019-03-03T12:28:04.392Z,10.80
2019-03-03T12:29:11.005Z,10.80
2019-03-03T12:30:04.903Z,10.80
2019-03-03T12:31:04.998Z,10.80
2019-03-03T12:32:04.319Z,10.80
2019-03-03T12:33:04.727Z,10.80
2019-03-03T12:34:04.666Z,10.70
2019-03-03T12:35:04.533Z,10.80
2019-03-03T12:36:05.066Z,10.70
2019-03-03T12:37:04.884Z,10.70
2019-03-03T12:38:04.758Z,10.70
2019-03-03T12:39:04.351Z,10.70
2019-03-03T12:40:04.701Z,10.70
2019-03-03T12:41:04.700Z,10.70
2019-03-03T12:42:05.049Z,10.70
2019-03-03T12:43:04.633Z,10.70
2019-03-03T12:44:04.637Z,10.60
2019-03-03T12:45:04.611Z,10.70
2019-03-03T12:46:05.027Z,10.70
2019-03-03T12:47:04.203Z,10.60
2019-03-03T12:48:04.201Z,10.60
2019-03-03T12:49:04.098Z,10.60
2019-03-03T12:50:04.125Z,10.60
2019-03-03T12:51:04.511Z,10.60
2019-03-03T12:52:05.031Z,10.60
2019-03-03T12:53:05.603Z,10.60
2019-03-03T12:54:04.382Z,10.60
2019-03-03T12:55:04.633Z,10.60
2019-03-03T12:56:04.670Z,10.60
2019-03-03T12:57:04.856Z,10.60
2019-03-03T12:58:04.801Z,10.60
2019-03-03T12:59:04.354Z,10.60
2019-03-03T13:00:04.810Z,10.60
2019-03-03T13:01:05.039Z,10.60
2019-03-03T13:02:05.028Z,10.60
2019-03-03T13:03:05.055Z,10.60
2019-03-03T13:04:04.717Z,10.60
2019-03-03T13:05:04.750Z,10.60
2019-03-03T13:06:04.726Z,10.60
2019-03-03T13:07:04.708Z,10.60
2019-03-03T13:08:04.438Z,10.60
2019-03-03T13:09:04.489Z,10.60
2019-03-03T13:10:04.524Z,10.60
2019-03-03T13:11:04.512Z,10.60
2019-03-03T13:12:04.535Z,10.60
2019-03-03T13:13:05.118Z,10.60
2019-03-03T13:14:04.572Z,10.60